sensor_id;sensor_type;location;lat;lon;timestamp;P1;durP1;ratioP1;P2;durP2;ratioP2
81697;SDS011;71109;52.514;5.708;2023-08-12T00:00:54;10.93;;;4.30;;
81697;SDS011;71109;52.514;5.708;2023-08-12T00:03:19;11.15;;;5.22;;
81697;SDS011;71109;52.514;5.708;2023-08-12T00:05:45;7.72;;;4.20;;
81697;SDS011;71109;52.514;5.708;2023-08-12T00:08:10;6.90;;;3.90;;
81697;SDS011;71109;52.514;5.708;2023-08-12T00:10:36;9.73;;;4.77;;
81697;SDS011;71109;52.514;5.708;2023-08-12T00:13:01;9.25;;;4.97;;
81697;SDS011;71109;52.514;5.708;2023-08-12T00:15:27;7.55;;;4.22;;
81697;SDS011;71109;52.514;5.708;2023-08-12T00:17:52;7.68;;;4.30;;
81697;SDS011;71109;52.514;5.708;2023-08-12T00:20:17;12.25;;;5.05;;
81697;SDS011;71109;52.514;5.708;2023-08-12T00:22:43;7.78;;;4.72;;
81697;SDS011;71109;52.514;5.708;2023-08-12T00:25:09;8.90;;;4.68;;
81697;SDS011;71109;52.514;5.708;2023-08-12T00:27:34;8.02;;;5.13;;
81697;SDS011;71109;52.514;5.708;2023-08-12T00:30:00;8.85;;;4.60;;
81697;SDS011;71109;52.514;5.708;2023-08-12T00:32:26;8.10;;;5.00;;
81697;SDS011;71109;52.514;5.708;2023-08-12T00:34:51;9.95;;;4.22;;
81697;SDS011;71109;52.514;5.708;2023-08-12T00:37:16;12.37;;;5.20;;
81697;SDS011;71109;52.514;5.708;2023-08-12T00:39:42;10.05;;;5.13;;
81697;SDS011;71109;52.514;5.708;2023-08-12T00:42:07;10.33;;;5.60;;
81697;SDS011;71109;52.514;5.708;2023-08-12T00:44:32;12.57;;;6.33;;
81697;SDS011;71109;52.514;5.708;2023-08-12T00:46:58;14.70;;;6.43;;
81697;SDS011;71109;52.514;5.708;2023-08-12T00:49:23;10.25;;;5.43;;
81697;SDS011;71109;52.514;5.708;2023-08-12T00:51:50;10.35;;;6.50;;
81697;SDS011;71109;52.514;5.708;2023-08-12T00:54:16;13.30;;;5.90;;
81697;SDS011;71109;52.514;5.708;2023-08-12T00:56:43;8.65;;;5.90;;
81697;SDS011;71109;52.514;5.708;2023-08-12T00:59:08;11.00;;;6.43;;
81697;SDS011;71109;52.514;5.708;2023-08-12T01:01:35;15.90;;;6.68;;
81697;SDS011;71109;52.514;5.708;2023-08-12T01:04:01;9.50;;;6.10;;
81697;SDS011;71109;52.514;5.708;2023-08-12T01:06:26;9.52;;;6.15;;
81697;SDS011;71109;52.514;5.708;2023-08-12T01:08:52;10.43;;;5.82;;
81697;SDS011;71109;52.514;5.708;2023-08-12T01:11:24;11.02;;;5.97;;
81697;SDS011;71109;52.514;5.708;2023-08-12T01:13:55;12.63;;;5.85;;
81697;SDS011;71109;52.514;5.708;2023-08-12T01:16:22;14.07;;;6.07;;
81697;SDS011;71109;52.514;5.708;2023-08-12T01:18:49;11.18;;;5.57;;
81697;SDS011;71109;52.514;5.708;2023-08-12T01:21:16;9.48;;;5.78;;
81697;SDS011;71109;52.514;5.708;2023-08-12T01:23:42;12.90;;;6.05;;
81697;SDS011;71109;52.514;5.708;2023-08-12T01:26:08;10.90;;;5.97;;
81697;SDS011;71109;52.514;5.708;2023-08-12T01:28:33;14.27;;;6.80;;
81697;SDS011;71109;52.514;5.708;2023-08-12T01:31:02;13.57;;;6.60;;
81697;SDS011;71109;52.514;5.708;2023-08-12T01:36:18;10.77;;;6.15;;
81697;SDS011;71109;52.514;5.708;2023-08-12T01:38:45;13.10;;;6.85;;
81697;SDS011;71109;52.514;5.708;2023-08-12T01:41:12;14.93;;;6.93;;
81697;SDS011;71109;52.514;5.708;2023-08-12T01:43:38;10.38;;;5.47;;
81697;SDS011;71109;52.514;5.708;2023-08-12T01:46:04;11.20;;;5.32;;
81697;SDS011;71109;52.514;5.708;2023-08-12T01:48:29;6.85;;;4.65;;
81697;SDS011;71109;52.514;5.708;2023-08-12T01:50:55;11.32;;;5.65;;
81697;SDS011;71109;52.514;5.708;2023-08-12T01:53:20;11.37;;;5.00;;
81697;SDS011;71109;52.514;5.708;2023-08-12T01:55:45;10.15;;;5.60;;
81697;SDS011;71109;52.514;5.708;2023-08-12T01:58:11;8.23;;;5.63;;
81697;SDS011;71109;52.514;5.708;2023-08-12T02:00:36;10.73;;;5.25;;
81697;SDS011;71109;52.514;5.708;2023-08-12T02:03:02;13.35;;;6.32;;
81697;SDS011;71109;52.514;5.708;2023-08-12T02:05:28;13.57;;;5.72;;
81697;SDS011;71109;52.514;5.708;2023-08-12T02:07:53;10.07;;;5.67;;
81697;SDS011;71109;52.514;5.708;2023-08-12T02:10:18;7.73;;;5.77;;
81697;SDS011;71109;52.514;5.708;2023-08-12T02:12:44;9.85;;;6.15;;
81697;SDS011;71109;52.514;5.708;2023-08-12T02:15:09;9.90;;;6.22;;
81697;SDS011;71109;52.514;5.708;2023-08-12T02:17:35;12.55;;;6.07;;
81697;SDS011;71109;52.514;5.708;2023-08-12T02:20:00;12.37;;;6.57;;
81697;SDS011;71109;52.514;5.708;2023-08-12T02:22:25;20.75;;;7.15;;
81697;SDS011;71109;52.514;5.708;2023-08-12T02:24:51;13.65;;;6.55;;
81697;SDS011;71109;52.514;5.708;2023-08-12T02:27:16;12.38;;;6.45;;
81697;SDS011;71109;52.514;5.708;2023-08-12T02:29:42;14.55;;;6.00;;
81697;SDS011;71109;52.514;5.708;2023-08-12T02:32:07;12.07;;;5.53;;
81697;SDS011;71109;52.514;5.708;2023-08-12T02:34:32;11.25;;;5.85;;
81697;SDS011;71109;52.514;5.708;2023-08-12T02:36:58;10.20;;;6.17;;
81697;SDS011;71109;52.514;5.708;2023-08-12T02:39:23;14.45;;;5.78;;
81697;SDS011;71109;52.514;5.708;2023-08-12T02:41:48;10.73;;;5.53;;
81697;SDS011;71109;52.514;5.708;2023-08-12T02:44:14;12.77;;;5.28;;
81697;SDS011;71109;52.514;5.708;2023-08-12T02:46:39;11.25;;;6.45;;
81697;SDS011;71109;52.514;5.708;2023-08-12T02:49:05;12.77;;;6.60;;
81697;SDS011;71109;52.514;5.708;2023-08-12T02:51:30;8.65;;;5.82;;
81697;SDS011;71109;52.514;5.708;2023-08-12T02:53:55;16.45;;;6.60;;
81697;SDS011;71109;52.514;5.708;2023-08-12T02:56:21;14.33;;;5.90;;
81697;SDS011;71109;52.514;5.708;2023-08-12T02:58:46;9.65;;;6.03;;
81697;SDS011;71109;52.514;5.708;2023-08-12T03:01:12;11.35;;;7.03;;
81697;SDS011;71109;52.514;5.708;2023-08-12T03:03:37;8.95;;;5.93;;
81697;SDS011;71109;52.514;5.708;2023-08-12T03:06:03;11.90;;;7.87;;
81697;SDS011;71109;52.514;5.708;2023-08-12T03:08:28;13.73;;;6.78;;
81697;SDS011;71109;52.514;5.708;2023-08-12T03:11:03;16.52;;;6.15;;
81697;SDS011;71109;52.514;5.708;2023-08-12T03:13:29;10.90;;;6.43;;
81697;SDS011;71109;52.514;5.708;2023-08-12T03:15:54;15.10;;;5.80;;
81697;SDS011;71109;52.514;5.708;2023-08-12T03:18:20;11.70;;;6.38;;
81697;SDS011;71109;52.514;5.708;2023-08-12T03:20:45;10.95;;;7.05;;
81697;SDS011;71109;52.514;5.708;2023-08-12T03:23:11;15.02;;;6.18;;
81697;SDS011;71109;52.514;5.708;2023-08-12T03:25:36;16.02;;;6.47;;
81697;SDS011;71109;52.514;5.708;2023-08-12T03:28:02;12.13;;;6.47;;
81697;SDS011;71109;52.514;5.708;2023-08-12T03:30:27;20.80;;;8.40;;
81697;SDS011;71109;52.514;5.708;2023-08-12T03:32:53;11.68;;;7.18;;
81697;SDS011;71109;52.514;5.708;2023-08-12T03:35:18;11.65;;;7.25;;
81697;SDS011;71109;52.514;5.708;2023-08-12T03:37:44;15.88;;;7.82;;
81697;SDS011;71109;52.514;5.708;2023-08-12T03:40:09;13.68;;;7.10;;
81697;SDS011;71109;52.514;5.708;2023-08-12T03:42:35;17.65;;;7.15;;
81697;SDS011;71109;52.514;5.708;2023-08-12T03:45:00;13.20;;;8.70;;
81697;SDS011;71109;52.514;5.708;2023-08-12T03:47:26;14.83;;;7.50;;
81697;SDS011;71109;52.514;5.708;2023-08-12T03:49:51;13.07;;;8.18;;
81697;SDS011;71109;52.514;5.708;2023-08-12T03:52:17;14.93;;;7.75;;
81697;SDS011;71109;52.514;5.708;2023-08-12T03:54:42;20.13;;;8.93;;
81697;SDS011;71109;52.514;5.708;2023-08-12T03:57:08;14.75;;;9.07;;
81697;SDS011;71109;52.514;5.708;2023-08-12T03:59:33;17.38;;;10.07;;
81697;SDS011;71109;52.514;5.708;2023-08-12T04:01:58;16.27;;;8.60;;
81697;SDS011;71109;52.514;5.708;2023-08-12T04:04:24;14.18;;;9.50;;
81697;SDS011;71109;52.514;5.708;2023-08-12T04:06:49;16.95;;;9.68;;
81697;SDS011;71109;52.514;5.708;2023-08-12T04:09:18;14.40;;;9.13;;
81697;SDS011;71109;52.514;5.708;2023-08-12T04:11:44;25.38;;;9.75;;
81697;SDS011;71109;52.514;5.708;2023-08-12T04:14:10;20.88;;;10.25;;
81697;SDS011;71109;52.514;5.708;2023-08-12T04:16:35;21.95;;;10.73;;
81697;SDS011;71109;52.514;5.708;2023-08-12T04:19:01;19.73;;;10.63;;
81697;SDS011;71109;52.514;5.708;2023-08-12T04:21:26;17.45;;;11.00;;
81697;SDS011;71109;52.514;5.708;2023-08-12T04:23:52;24.25;;;11.80;;
81697;SDS011;71109;52.514;5.708;2023-08-12T04:26:17;17.83;;;10.45;;
81697;SDS011;71109;52.514;5.708;2023-08-12T04:28:43;22.83;;;11.95;;
81697;SDS011;71109;52.514;5.708;2023-08-12T04:31:08;23.83;;;13.20;;
81697;SDS011;71109;52.514;5.708;2023-08-12T04:33:34;25.45;;;12.27;;
81697;SDS011;71109;52.514;5.708;2023-08-12T04:35:59;16.77;;;11.20;;
81697;SDS011;71109;52.514;5.708;2023-08-12T04:38:25;18.58;;;11.23;;
81697;SDS011;71109;52.514;5.708;2023-08-12T04:40:52;22.88;;;11.77;;
81697;SDS011;71109;52.514;5.708;2023-08-12T04:43:18;20.75;;;12.43;;
81697;SDS011;71109;52.514;5.708;2023-08-12T04:45:46;19.45;;;11.65;;
81697;SDS011;71109;52.514;5.708;2023-08-12T04:48:12;24.75;;;12.02;;
81697;SDS011;71109;52.514;5.708;2023-08-12T04:50:38;20.90;;;11.65;;
81697;SDS011;71109;52.514;5.708;2023-08-12T04:53:06;17.85;;;11.80;;
81697;SDS011;71109;52.514;5.708;2023-08-12T04:55:32;21.40;;;12.20;;
81697;SDS011;71109;52.514;5.708;2023-08-12T04:57:59;21.58;;;12.60;;
81697;SDS011;71109;52.514;5.708;2023-08-12T05:00:25;22.98;;;13.43;;
81697;SDS011;71109;52.514;5.708;2023-08-12T05:02:50;18.27;;;11.60;;
81697;SDS011;71109;52.514;5.708;2023-08-12T05:05:16;22.77;;;12.43;;
81697;SDS011;71109;52.514;5.708;2023-08-12T05:07:41;17.73;;;11.70;;
81697;SDS011;71109;52.514;5.708;2023-08-12T05:10:06;25.77;;;12.23;;
81697;SDS011;71109;52.514;5.708;2023-08-12T05:12:32;20.60;;;13.57;;
81697;SDS011;71109;52.514;5.708;2023-08-12T05:14:57;22.50;;;12.60;;
81697;SDS011;71109;52.514;5.708;2023-08-12T05:17:23;20.88;;;12.88;;
81697;SDS011;71109;52.514;5.708;2023-08-12T05:19:48;16.05;;;11.45;;
81697;SDS011;71109;52.514;5.708;2023-08-12T05:22:14;16.85;;;11.40;;
81697;SDS011;71109;52.514;5.708;2023-08-12T05:24:39;22.60;;;11.98;;
81697;SDS011;71109;52.514;5.708;2023-08-12T05:27:04;25.47;;;12.77;;
81697;SDS011;71109;52.514;5.708;2023-08-12T05:29:30;21.50;;;12.85;;
81697;SDS011;71109;52.514;5.708;2023-08-12T05:31:56;17.88;;;11.77;;
81697;SDS011;71109;52.514;5.708;2023-08-12T05:34:21;19.30;;;12.25;;
81697;SDS011;71109;52.514;5.708;2023-08-12T05:36:46;19.13;;;12.27;;
81697;SDS011;71109;52.514;5.708;2023-08-12T05:39:13;19.10;;;12.45;;
81697;SDS011;71109;52.514;5.708;2023-08-12T05:41:38;24.58;;;13.02;;
81697;SDS011;71109;52.514;5.708;2023-08-12T05:44:04;23.63;;;13.50;;
81697;SDS011;71109;52.514;5.708;2023-08-12T05:46:30;22.35;;;13.15;;
81697;SDS011;71109;52.514;5.708;2023-08-12T05:48:55;25.88;;;13.80;;
81697;SDS011;71109;52.514;5.708;2023-08-12T05:51:20;22.77;;;14.02;;
81697;SDS011;71109;52.514;5.708;2023-08-12T05:53:46;23.33;;;13.63;;
81697;SDS011;71109;52.514;5.708;2023-08-12T05:56:11;26.90;;;13.23;;
81697;SDS011;71109;52.514;5.708;2023-08-12T05:58:37;25.08;;;13.30;;
81697;SDS011;71109;52.514;5.708;2023-08-12T06:01:02;19.38;;;13.20;;
81697;SDS011;71109;52.514;5.708;2023-08-12T06:03:27;26.77;;;14.25;;
81697;SDS011;71109;52.514;5.708;2023-08-12T06:05:53;22.40;;;13.05;;
81697;SDS011;71109;52.514;5.708;2023-08-12T06:08:18;19.23;;;13.70;;
81697;SDS011;71109;52.514;5.708;2023-08-12T06:10:43;27.80;;;13.95;;
81697;SDS011;71109;52.514;5.708;2023-08-12T06:13:09;20.30;;;14.53;;
81697;SDS011;71109;52.514;5.708;2023-08-12T06:15:34;23.65;;;13.85;;
81697;SDS011;71109;52.514;5.708;2023-08-12T06:18:00;26.48;;;15.13;;
81697;SDS011;71109;52.514;5.708;2023-08-12T06:20:27;20.70;;;13.35;;
81697;SDS011;71109;52.514;5.708;2023-08-12T06:22:52;17.60;;;13.48;;
81697;SDS011;71109;52.514;5.708;2023-08-12T06:25:18;20.98;;;12.88;;
81697;SDS011;71109;52.514;5.708;2023-08-12T06:27:44;24.88;;;14.27;;
81697;SDS011;71109;52.514;5.708;2023-08-12T06:30:10;22.95;;;13.82;;
81697;SDS011;71109;52.514;5.708;2023-08-12T06:32:36;22.02;;;13.63;;
81697;SDS011;71109;52.514;5.708;2023-08-12T06:35:02;24.35;;;13.82;;
81697;SDS011;71109;52.514;5.708;2023-08-12T06:37:27;18.45;;;13.38;;
81697;SDS011;71109;52.514;5.708;2023-08-12T06:39:53;24.48;;;13.30;;
81697;SDS011;71109;52.514;5.708;2023-08-12T06:42:18;21.73;;;12.83;;
81697;SDS011;71109;52.514;5.708;2023-08-12T06:44:44;21.23;;;12.88;;
81697;SDS011;71109;52.514;5.708;2023-08-12T06:47:10;21.50;;;13.05;;
81697;SDS011;71109;52.514;5.708;2023-08-12T06:49:35;25.27;;;13.38;;
81697;SDS011;71109;52.514;5.708;2023-08-12T06:52:01;25.42;;;14.40;;
81697;SDS011;71109;52.514;5.708;2023-08-12T06:54:27;22.98;;;12.98;;
81697;SDS011;71109;52.514;5.708;2023-08-12T06:56:52;21.58;;;13.73;;
81697;SDS011;71109;52.514;5.708;2023-08-12T06:59:17;25.67;;;14.70;;
81697;SDS011;71109;52.514;5.708;2023-08-12T07:01:43;23.48;;;14.27;;
81697;SDS011;71109;52.514;5.708;2023-08-12T07:04:08;24.08;;;14.60;;
81697;SDS011;71109;52.514;5.708;2023-08-12T07:06:33;24.57;;;15.17;;
81697;SDS011;71109;52.514;5.708;2023-08-12T07:08:59;24.87;;;14.57;;
81697;SDS011;71109;52.514;5.708;2023-08-12T07:11:24;23.60;;;15.15;;
81697;SDS011;71109;52.514;5.708;2023-08-12T07:13:49;24.93;;;16.23;;
81697;SDS011;71109;52.514;5.708;2023-08-12T07:16:15;26.88;;;15.55;;
81697;SDS011;71109;52.514;5.708;2023-08-12T07:18:40;30.30;;;18.07;;
81697;SDS011;71109;52.514;5.708;2023-08-12T07:21:06;27.52;;;17.23;;
81697;SDS011;71109;52.514;5.708;2023-08-12T07:23:31;27.30;;;17.33;;
81697;SDS011;71109;52.514;5.708;2023-08-12T07:25:57;24.80;;;16.00;;
81697;SDS011;71109;52.514;5.708;2023-08-12T07:28:22;26.88;;;17.67;;
81697;SDS011;71109;52.514;5.708;2023-08-12T07:30:48;25.90;;;17.63;;
81697;SDS011;71109;52.514;5.708;2023-08-12T07:33:14;26.75;;;16.98;;
81697;SDS011;71109;52.514;5.708;2023-08-12T07:35:40;31.73;;;18.38;;
81697;SDS011;71109;52.514;5.708;2023-08-12T07:38:06;24.58;;;17.17;;
81697;SDS011;71109;52.514;5.708;2023-08-12T07:40:31;25.63;;;16.88;;
81697;SDS011;71109;52.514;5.708;2023-08-12T07:42:56;26.77;;;16.40;;
81697;SDS011;71109;52.514;5.708;2023-08-12T07:45:22;23.40;;;12.82;;
81697;SDS011;71109;52.514;5.708;2023-08-12T07:47:49;18.92;;;12.80;;
81697;SDS011;71109;52.514;5.708;2023-08-12T07:50:14;18.27;;;10.98;;
81697;SDS011;71109;52.514;5.708;2023-08-12T07:52:40;21.27;;;12.13;;
81697;SDS011;71109;52.514;5.708;2023-08-12T07:55:05;17.35;;;10.07;;
81697;SDS011;71109;52.514;5.708;2023-08-12T07:57:31;7.78;;;6.15;;
81697;SDS011;71109;52.514;5.708;2023-08-12T07:59:57;11.30;;;6.03;;
81697;SDS011;71109;52.514;5.708;2023-08-12T08:02:22;9.98;;;6.78;;
81697;SDS011;71109;52.514;5.708;2023-08-12T08:04:48;9.70;;;6.78;;
81697;SDS011;71109;52.514;5.708;2023-08-12T08:07:14;8.02;;;6.80;;
81697;SDS011;71109;52.514;5.708;2023-08-12T08:09:43;5.60;;;5.03;;
81697;SDS011;71109;52.514;5.708;2023-08-12T08:12:09;9.02;;;5.45;;
81697;SDS011;71109;52.514;5.708;2023-08-12T08:14:34;10.05;;;5.00;;
81697;SDS011;71109;52.514;5.708;2023-08-12T08:17:00;8.47;;;4.67;;
81697;SDS011;71109;52.514;5.708;2023-08-12T08:19:26;10.13;;;5.55;;
81697;SDS011;71109;52.514;5.708;2023-08-12T08:21:52;6.53;;;4.90;;
81697;SDS011;71109;52.514;5.708;2023-08-12T08:24:17;8.10;;;4.20;;
81697;SDS011;71109;52.514;5.708;2023-08-12T08:26:42;5.90;;;4.18;;
81697;SDS011;71109;52.514;5.708;2023-08-12T08:29:10;6.38;;;4.32;;
81697;SDS011;71109;52.514;5.708;2023-08-12T08:31:36;5.72;;;4.03;;
81697;SDS011;71109;52.514;5.708;2023-08-12T08:34:01;8.45;;;4.93;;
81697;SDS011;71109;52.514;5.708;2023-08-12T08:36:26;7.50;;;4.22;;
81697;SDS011;71109;52.514;5.708;2023-08-12T08:38:52;9.70;;;4.53;;
81697;SDS011;71109;52.514;5.708;2023-08-12T08:41:17;6.82;;;4.43;;
81697;SDS011;71109;52.514;5.708;2023-08-12T08:43:43;8.13;;;5.07;;
81697;SDS011;71109;52.514;5.708;2023-08-12T08:46:15;6.32;;;3.15;;
81697;SDS011;71109;52.514;5.708;2023-08-12T08:48:44;7.00;;;4.00;;
81697;SDS011;71109;52.514;5.708;2023-08-12T08:51:10;8.80;;;3.88;;
81697;SDS011;71109;52.514;5.708;2023-08-12T08:53:40;7.75;;;4.30;;
81697;SDS011;71109;52.514;5.708;2023-08-12T08:56:06;14.27;;;4.30;;
81697;SDS011;71109;52.514;5.708;2023-08-12T08:58:36;10.68;;;3.85;;
81697;SDS011;71109;52.514;5.708;2023-08-12T09:01:02;5.50;;;3.67;;
81697;SDS011;71109;52.514;5.708;2023-08-12T09:03:28;11.57;;;3.30;;
81697;SDS011;71109;52.514;5.708;2023-08-12T09:05:54;4.50;;;2.83;;
81697;SDS011;71109;52.514;5.708;2023-08-12T09:08:21;7.88;;;4.43;;
81697;SDS011;71109;52.514;5.708;2023-08-12T09:10:47;6.00;;;4.10;;
81697;SDS011;71109;52.514;5.708;2023-08-12T09:13:13;5.38;;;3.65;;
81697;SDS011;71109;52.514;5.708;2023-08-12T09:15:40;8.10;;;5.20;;
81697;SDS011;71109;52.514;5.708;2023-08-12T09:18:05;5.40;;;3.95;;
81697;SDS011;71109;52.514;5.708;2023-08-12T09:20:31;7.53;;;4.97;;
81697;SDS011;71109;52.514;5.708;2023-08-12T09:22:58;6.57;;;4.75;;
81697;SDS011;71109;52.514;5.708;2023-08-12T09:25:24;8.48;;;4.68;;
81697;SDS011;71109;52.514;5.708;2023-08-12T09:27:53;4.93;;;3.22;;
81697;SDS011;71109;52.514;5.708;2023-08-12T09:30:20;3.40;;;3.08;;
81697;SDS011;71109;52.514;5.708;2023-08-12T09:32:57;5.20;;;3.08;;
81697;SDS011;71109;52.514;5.708;2023-08-12T09:35:23;5.88;;;3.50;;
81697;SDS011;71109;52.514;5.708;2023-08-12T09:37:49;5.25;;;3.22;;
81697;SDS011;71109;52.514;5.708;2023-08-12T09:40:14;5.85;;;4.22;;
81697;SDS011;71109;52.514;5.708;2023-08-12T09:42:46;7.78;;;3.35;;
81697;SDS011;71109;52.514;5.708;2023-08-12T09:45:12;3.13;;;0.82;;
81697;SDS011;71109;52.514;5.708;2023-08-12T09:47:38;2.88;;;0.93;;
81697;SDS011;71109;52.514;5.708;2023-08-12T09:50:06;5.78;;;1.35;;
81697;SDS011;71109;52.514;5.708;2023-08-12T09:52:32;4.90;;;1.58;;
81697;SDS011;71109;52.514;5.708;2023-08-12T09:54:57;2.67;;;1.60;;
81697;SDS011;71109;52.514;5.708;2023-08-12T09:57:25;5.60;;;2.10;;
81697;SDS011;71109;52.514;5.708;2023-08-12T09:59:51;7.03;;;3.25;;
81697;SDS011;71109;52.514;5.708;2023-08-12T10:02:18;10.00;;;2.63;;
81697;SDS011;71109;52.514;5.708;2023-08-12T10:04:45;10.35;;;2.40;;
81697;SDS011;71109;52.514;5.708;2023-08-12T10:07:11;4.78;;;2.50;;
81697;SDS011;71109;52.514;5.708;2023-08-12T10:09:39;6.88;;;2.60;;
81697;SDS011;71109;52.514;5.708;2023-08-12T10:12:05;9.25;;;2.50;;
81697;SDS011;71109;52.514;5.708;2023-08-12T10:14:32;11.13;;;3.10;;
81697;SDS011;71109;52.514;5.708;2023-08-12T10:16:58;9.07;;;2.97;;
81697;SDS011;71109;52.514;5.708;2023-08-12T10:19:24;6.95;;;2.85;;
81697;SDS011;71109;52.514;5.708;2023-08-12T10:21:54;6.35;;;2.30;;
81697;SDS011;71109;52.514;5.708;2023-08-12T10:24:23;6.85;;;2.72;;
81697;SDS011;71109;52.514;5.708;2023-08-12T10:26:49;12.95;;;3.63;;
81697;SDS011;71109;52.514;5.708;2023-08-12T10:29:16;12.68;;;2.95;;
81697;SDS011;71109;52.514;5.708;2023-08-12T10:31:41;7.68;;;3.72;;
81697;SDS011;71109;52.514;5.708;2023-08-12T10:34:17;9.38;;;3.10;;
81697;SDS011;71109;52.514;5.708;2023-08-12T10:36:56;8.75;;;2.80;;
81697;SDS011;71109;52.514;5.708;2023-08-12T10:39:25;5.03;;;2.33;;
81697;SDS011;71109;52.514;5.708;2023-08-12T10:41:51;8.25;;;3.17;;
81697;SDS011;71109;52.514;5.708;2023-08-12T10:44:17;10.07;;;3.22;;
81697;SDS011;71109;52.514;5.708;2023-08-12T10:46:49;10.60;;;3.15;;
81697;SDS011;71109;52.514;5.708;2023-08-12T10:49:15;9.55;;;2.30;;
81697;SDS011;71109;52.514;5.708;2023-08-12T10:51:41;9.02;;;3.28;;
81697;SDS011;71109;52.514;5.708;2023-08-12T10:54:17;7.03;;;2.40;;
81697;SDS011;71109;52.514;5.708;2023-08-12T10:57:04;7.97;;;2.30;;
81697;SDS011;71109;52.514;5.708;2023-08-12T11:05:01;7.13;;;2.38;;
81697;SDS011;71109;52.514;5.708;2023-08-12T11:07:37;6.85;;;1.95;;
81697;SDS011;71109;52.514;5.708;2023-08-12T11:12:39;4.97;;;1.70;;
81697;SDS011;71109;52.514;5.708;2023-08-12T11:15:07;5.70;;;2.13;;
81697;SDS011;71109;52.514;5.708;2023-08-12T11:17:33;3.90;;;1.95;;
81697;SDS011;71109;52.514;5.708;2023-08-12T11:20:00;10.52;;;2.75;;
81697;SDS011;71109;52.514;5.708;2023-08-12T11:22:29;7.50;;;2.17;;
81697;SDS011;71109;52.514;5.708;2023-08-12T11:24:55;5.82;;;2.05;;
81697;SDS011;71109;52.514;5.708;2023-08-12T11:27:21;6.18;;;1.42;;
81697;SDS011;71109;52.514;5.708;2023-08-12T11:29:48;9.63;;;2.22;;
81697;SDS011;71109;52.514;5.708;2023-08-12T11:32:14;5.90;;;2.40;;
81697;SDS011;71109;52.514;5.708;2023-08-12T11:34:40;4.50;;;2.55;;
81697;SDS011;71109;52.514;5.708;2023-08-12T11:37:05;5.00;;;1.92;;
81697;SDS011;71109;52.514;5.708;2023-08-12T11:39:31;9.80;;;2.65;;
81697;SDS011;71109;52.514;5.708;2023-08-12T11:41:57;7.15;;;2.38;;
81697;SDS011;71109;52.514;5.708;2023-08-12T11:44:23;9.13;;;2.40;;
81697;SDS011;71109;52.514;5.708;2023-08-12T11:46:49;13.48;;;2.67;;
81697;SDS011;71109;52.514;5.708;2023-08-12T11:49:14;5.35;;;2.13;;
81697;SDS011;71109;52.514;5.708;2023-08-12T11:51:40;7.65;;;2.20;;
81697;SDS011;71109;52.514;5.708;2023-08-12T11:54:06;9.40;;;2.72;;
81697;SDS011;71109;52.514;5.708;2023-08-12T11:56:32;8.63;;;2.05;;
81697;SDS011;71109;52.514;5.708;2023-08-12T11:58:57;7.30;;;1.73;;
81697;SDS011;71109;52.514;5.708;2023-08-12T12:01:23;6.75;;;2.03;;
81697;SDS011;71109;52.514;5.708;2023-08-12T12:03:51;6.25;;;2.05;;
81697;SDS011;71109;52.514;5.708;2023-08-12T12:06:17;6.22;;;1.88;;
81697;SDS011;71109;52.514;5.708;2023-08-12T12:08:46;5.82;;;1.60;;
81697;SDS011;71109;52.514;5.708;2023-08-12T12:11:13;8.10;;;3.35;;
81697;SDS011;71109;52.514;5.708;2023-08-12T12:13:39;6.28;;;2.15;;
81697;SDS011;71109;52.514;5.708;2023-08-12T12:16:09;4.95;;;1.80;;
81697;SDS011;71109;52.514;5.708;2023-08-12T12:18:35;5.07;;;1.77;;
81697;SDS011;71109;52.514;5.708;2023-08-12T12:21:00;7.82;;;2.13;;
81697;SDS011;71109;52.514;5.708;2023-08-12T12:23:26;6.70;;;2.13;;
81697;SDS011;71109;52.514;5.708;2023-08-12T12:25:59;5.57;;;1.98;;
81697;SDS011;71109;52.514;5.708;2023-08-12T12:28:28;6.57;;;2.22;;
81697;SDS011;71109;52.514;5.708;2023-08-12T12:30:53;8.43;;;1.75;;
81697;SDS011;71109;52.514;5.708;2023-08-12T12:33:19;9.05;;;1.63;;
81697;SDS011;71109;52.514;5.708;2023-08-12T12:35:44;6.83;;;2.10;;
81697;SDS011;71109;52.514;5.708;2023-08-12T12:38:10;6.72;;;2.67;;
81697;SDS011;71109;52.514;5.708;2023-08-12T12:40:36;9.02;;;1.67;;
81697;SDS011;71109;52.514;5.708;2023-08-12T12:43:03;5.50;;;1.83;;
81697;SDS011;71109;52.514;5.708;2023-08-12T12:45:28;7.43;;;2.00;;
81697;SDS011;71109;52.514;5.708;2023-08-12T12:47:54;10.68;;;2.08;;
81697;SDS011;71109;52.514;5.708;2023-08-12T12:50:19;9.17;;;2.20;;
81697;SDS011;71109;52.514;5.708;2023-08-12T12:52:44;7.63;;;2.17;;
81697;SDS011;71109;52.514;5.708;2023-08-12T12:55:10;7.03;;;2.08;;
81697;SDS011;71109;52.514;5.708;2023-08-12T12:57:35;7.03;;;2.15;;
81697;SDS011;71109;52.514;5.708;2023-08-12T13:00:00;12.50;;;2.40;;
81697;SDS011;71109;52.514;5.708;2023-08-12T13:02:26;10.57;;;2.05;;
81697;SDS011;71109;52.514;5.708;2023-08-12T13:04:52;5.80;;;1.48;;
81697;SDS011;71109;52.514;5.708;2023-08-12T13:07:17;7.47;;;2.55;;
81697;SDS011;71109;52.514;5.708;2023-08-12T13:09:43;15.70;;;2.70;;
81697;SDS011;71109;52.514;5.708;2023-08-12T13:12:08;12.05;;;2.33;;
81697;SDS011;71109;52.514;5.708;2023-08-12T13:14:34;10.43;;;2.35;;
81697;SDS011;71109;52.514;5.708;2023-08-12T13:16:59;6.67;;;2.07;;
81697;SDS011;71109;52.514;5.708;2023-08-12T13:19:24;7.57;;;2.05;;
81697;SDS011;71109;52.514;5.708;2023-08-12T13:21:50;7.20;;;2.20;;
81697;SDS011;71109;52.514;5.708;2023-08-12T13:24:15;9.87;;;2.77;;
81697;SDS011;71109;52.514;5.708;2023-08-12T13:26:43;9.50;;;1.85;;
81697;SDS011;71109;52.514;5.708;2023-08-12T13:29:08;7.25;;;2.13;;
81697;SDS011;71109;52.514;5.708;2023-08-12T13:31:34;11.50;;;2.73;;
81697;SDS011;71109;52.514;5.708;2023-08-12T13:33:59;7.40;;;2.17;;
81697;SDS011;71109;52.514;5.708;2023-08-12T13:36:24;8.73;;;2.40;;
81697;SDS011;71109;52.514;5.708;2023-08-12T13:38:50;8.63;;;2.83;;
81697;SDS011;71109;52.514;5.708;2023-08-12T13:41:15;9.05;;;2.33;;
81697;SDS011;71109;52.514;5.708;2023-08-12T13:43:41;7.20;;;2.00;;
81697;SDS011;71109;52.514;5.708;2023-08-12T13:46:06;5.77;;;2.30;;
81697;SDS011;71109;52.514;5.708;2023-08-12T13:48:31;7.28;;;1.80;;
81697;SDS011;71109;52.514;5.708;2023-08-12T13:50:57;10.02;;;3.28;;
81697;SDS011;71109;52.514;5.708;2023-08-12T13:53:22;5.43;;;1.67;;
81697;SDS011;71109;52.514;5.708;2023-08-12T13:55:49;10.18;;;2.60;;
81697;SDS011;71109;52.514;5.708;2023-08-12T13:58:14;10.43;;;1.88;;
81697;SDS011;71109;52.514;5.708;2023-08-12T14:00:40;11.95;;;2.10;;
81697;SDS011;71109;52.514;5.708;2023-08-12T14:03:05;7.00;;;2.03;;
81697;SDS011;71109;52.514;5.708;2023-08-12T14:05:30;4.97;;;1.60;;
81697;SDS011;71109;52.514;5.708;2023-08-12T14:07:56;9.30;;;2.78;;
81697;SDS011;71109;52.514;5.708;2023-08-12T14:10:21;8.33;;;2.33;;
81697;SDS011;71109;52.514;5.708;2023-08-12T14:12:47;8.57;;;2.15;;
81697;SDS011;71109;52.514;5.708;2023-08-12T14:15:13;10.68;;;2.63;;
81697;SDS011;71109;52.514;5.708;2023-08-12T14:17:39;8.85;;;3.08;;
81697;SDS011;71109;52.514;5.708;2023-08-12T14:20:05;7.55;;;2.30;;
81697;SDS011;71109;52.514;5.708;2023-08-12T14:22:33;5.15;;;1.83;;
81697;SDS011;71109;52.514;5.708;2023-08-12T14:24:59;8.32;;;2.63;;
81697;SDS011;71109;52.514;5.708;2023-08-12T14:27:24;10.17;;;3.63;;
81697;SDS011;71109;52.514;5.708;2023-08-12T14:29:49;7.67;;;2.30;;
81697;SDS011;71109;52.514;5.708;2023-08-12T14:32:15;6.20;;;1.67;;
81697;SDS011;71109;52.514;5.708;2023-08-12T14:34:41;6.13;;;2.05;;
81697;SDS011;71109;52.514;5.708;2023-08-12T14:37:10;7.57;;;2.15;;
81697;SDS011;71109;52.514;5.708;2023-08-12T14:39:36;7.15;;;2.10;;